Time;durP1;ratioP1;P1;durP2;ratioP2;P2;SDS_P1;SDS_P2;PMS_P1;PMS_P2;Temp;Humidity;BMP_temperature;BMP_pressure;BME280_temperature;BME280_humidity;BME280_pressure;Samples;Min_cycle;Max_cycle;Signal;HPM_P1;HPM_P2
2023/07/24 00:00:24;;;;;;;;;;;21.90;60.20;;;;;;5097119;28;19931;-53
2023/07/24 00:02:51;;;;;;;;;;;21.90;60.20;;;;;;5114439;28;19930;-51
2023/07/24 00:05:18;;;;;;;;;;;21.90;60.20;;;;;;5095901;28;19928;-51
2023/07/24 00:07:44;;;;;;;;;;;21.90;60.20;;;;;;5105095;28;19945;-53
2023/07/24 00:10:11;;;;;;;;;;;22.00;61.10;;;;;;5112662;28;19940;-51
2023/07/24 00:12:38;;;;;;;;;;;22.00;60.30;;;;;;5105546;27;20039;-53
2023/07/24 00:15:05;;;;;;;;;;;21.90;60.20;;;;;;5087615;28;19928;-50
2023/07/24 00:17:33;;;;;;;;;;;21.90;60.20;;;;;;5095893;28;19924;-52
2023/07/24 00:20:00;;;;;;;;;;;22.00;60.40;;;;;;5094161;28;20327;-49
2023/07/24 00:22:27;;;;;;;;;;;22.00;60.50;;;;;;5095595;28;19927;-52
2023/07/24 00:24:53;;;;;;;;;;;21.90;60.30;;;;;;5113090;28;19924;-50
2023/07/24 00:27:20;;;;;;;;;;;21.90;60.30;;;;;;5111234;28;19927;-51
2023/07/24 00:29:47;;;;;;;;;;;22.00;60.50;;;;;;5087967;28;20044;-54
2023/07/24 00:32:14;;;;;;;;;;;21.90;60.40;;;;;;5094314;28;19928;-53
2023/07/24 00:34:42;;;;;;;;;;;21.90;60.30;;;;;;5106266;28;19970;-53
2023/07/24 00:37:09;;;;;;;;;;;21.90;60.40;;;;;;5110415;28;19977;-51
2023/07/24 00:39:35;;;;;;;;;;;22.00;60.50;;;;;;5112601;28;19953;-51
2023/07/24 00:42:02;;;;;;;;;;;22.00;60.50;;;;;;5085533;28;19927;-52
2023/07/24 00:44:29;;;;;;;;;;;21.90;60.40;;;;;;5096978;28;19948;-51
2023/07/24 00:46:56;;;;;;;;;;;21.90;60.50;;;;;;5101372;28;19931;-48
2023/07/24 00:49:22;;;;;;;;;;;22.00;60.60;;;;;;5099416;28;19943;-52
2023/07/24 00:51:50;;;;;;;;;;;22.00;60.60;;;;;;5090491;28;20031;-50
2023/07/24 00:54:17;;;;;;;;;;;22.00;60.60;;;;;;5074176;28;19984;-50
2023/07/24 00:56:44;;;;;;;;;;;22.00;60.60;;;;;;5101104;28;19924;-49
2023/07/24 00:59:11;;;;;;;;;;;22.00;60.60;;;;;;5079484;28;19954;-53
2023/07/24 01:01:38;;;;;;;;;;;21.90;60.50;;;;;;5108945;27;19923;-53
2023/07/24 01:04:05;;;;;;;;;;;22.00;60.60;;;;;;5102807;28;19924;-51
2023/07/24 01:06:32;;;;;;;;;;;22.00;60.70;;;;;;5105682;28;19940;-50
2023/07/24 01:09:00;;;;;;;;;;;22.00;60.60;;;;;;5108746;28;19923;-50
2023/07/24 01:11:28;;;;;;;;;;;22.00;60.60;;;;;;5090968;28;20245;-50
2023/07/24 01:13:57;;;;;;;;;;;22.00;60.70;;;;;;5102031;28;19973;-54
2023/07/24 01:16:23;;;;;;;;;;;21.90;60.50;;;;;;5112456;27;20308;-54
2023/07/24 01:18:50;;;;;;;;;;;22.00;60.60;;;;;;5096494;28;19924;-54
2023/07/24 01:21:17;;;;;;;;;;;22.00;60.70;;;;;;5091656;28;19970;-54
2023/07/24 01:23:52;;;;;;;;;;;22.00;60.70;;;;;;5106040;28;19924;-49
2023/07/24 01:26:20;;;;;;;;;;;22.00;60.70;;;;;;5092773;28;19924;-54
2023/07/24 01:28:47;;;;;;;;;;;22.00;60.60;;;;;;5084668;28;19934;-51
2023/07/24 01:31:16;;;;;;;;;;;22.00;60.60;;;;;;5101077;28;19924;-50
2023/07/24 01:33:43;;;;;;;;;;;22.00;60.60;;;;;;5106998;28;19924;-54
2023/07/24 01:36:09;;;;;;;;;;;22.00;60.70;;;;;;5089347;28;19989;-47
2023/07/24 01:38:36;;;;;;;;;;;22.00;60.70;;;;;;5102694;28;20046;-51
2023/07/24 01:41:03;;;;;;;;;;;22.00;60.70;;;;;;5107711;28;19924;-52
2023/07/24 01:43:32;;;;;;;;;;;22.00;60.70;;;;;;5105846;28;19931;-51
2023/07/24 01:45:59;;;;;;;;;;;22.00;60.70;;;;;;5088703;28;19924;-51
2023/07/24 01:48:25;;;;;;;;;;;22.00;60.70;;;;;;5102747;28;20001;-54
2023/07/24 01:50:52;;;;;;;;;;;22.00;60.70;;;;;;5108873;28;19972;-49
2023/07/24 01:53:19;;;;;;;;;;;22.00;60.80;;;;;;5082486;28;19931;-48
2023/07/24 01:55:46;;;;;;;;;;;22.00;60.70;;;;;;5084841;28;19931;-48
2023/07/24 01:58:12;;;;;;;;;;;22.00;60.80;;;;;;5087541;28;19978;-51
2023/07/24 02:00:41;;;;;;;;;;;22.00;60.80;;;;;;5109555;28;19935;-52
2023/07/24 02:03:07;;;;;;;;;;;22.00;60.80;;;;;;5093354;28;19931;-53
2023/07/24 02:05:35;;;;;;;;;;;22.00;60.80;;;;;;5086216;28;19932;-49
2023/07/24 02:08:02;;;;;;;;;;;22.00;60.80;;;;;;5100160;28;19924;-50
2023/07/24 02:10:28;;;;;;;;;;;22.00;60.90;;;;;;5093011;28;19924;-52
2023/07/24 02:12:56;;;;;;;;;;;22.00;61.00;;;;;;5105530;28;19928;-52
2023/07/24 02:15:22;;;;;;;;;;;22.00;61.00;;;;;;5089586;28;19928;-52
2023/07/24 02:17:50;;;;;;;;;;;22.00;61.00;;;;;;5089744;28;19938;-54
2023/07/24 02:20:18;;;;;;;;;;;22.00;61.00;;;;;;5081496;28;19959;-51
2023/07/24 02:22:44;;;;;;;;;;;22.00;60.90;;;;;;5100701;28;19931;-54
2023/07/24 02:25:11;;;;;;;;;;;22.00;60.90;;;;;;5090563;28;19931;-49
2023/07/24 02:27:38;;;;;;;;;;;22.00;61.00;;;;;;5107886;28;19927;-49
2023/07/24 02:30:05;;;;;;;;;;;22.00;61.00;;;;;;5106266;28;19924;-51
2023/07/24 02:32:32;;;;;;;;;;;22.00;60.90;;;;;;5102670;28;19924;-48
2023/07/24 02:35:00;;;;;;;;;;;22.00;61.00;;;;;;5102014;28;19935;-49
2023/07/24 02:37:27;;;;;;;;;;;22.00;61.00;;;;;;5104342;28;19924;-46
2023/07/24 02:39:53;;;;;;;;;;;22.00;61.00;;;;;;5108281;28;19924;-46
2023/07/24 02:42:20;;;;;;;;;;;22.00;61.00;;;;;;5105452;28;20018;-49
2023/07/24 02:44:47;;;;;;;;;;;22.00;60.90;;;;;;5092321;28;19924;-51
2023/07/24 02:47:14;;;;;;;;;;;22.00;61.00;;;;;;5103770;28;20048;-53
2023/07/24 02:49:40;;;;;;;;;;;22.00;61.00;;;;;;5104394;28;19928;-50
2023/07/24 02:52:08;;;;;;;;;;;22.00;61.00;;;;;;5100187;28;19968;-50
2023/07/24 02:54:35;;;;;;;;;;;22.00;61.00;;;;;;5106096;28;19928;-48
2023/07/24 02:57:02;;;;;;;;;;;22.00;61.00;;;;;;5102146;28;19928;-52
2023/07/24 02:59:31;;;;;;;;;;;22.00;61.00;;;;;;5104376;28;19923;-55
2023/07/24 03:01:58;;;;;;;;;;;22.00;61.00;;;;;;5086702;28;20050;-53
2023/07/24 03:04:25;;;;;;;;;;;22.00;61.10;;;;;;5102839;28;19998;-49
2023/07/24 03:06:51;;;;;;;;;;;22.00;61.10;;;;;;5088595;28;19923;-51
2023/07/24 03:09:19;;;;;;;;;;;22.00;61.10;;;;;;5101997;28;19928;-53
2023/07/24 03:11:46;;;;;;;;;;;22.00;61.10;;;;;;5088992;28;19924;-50
2023/07/24 03:14:13;;;;;;;;;;;22.00;61.10;;;;;;5106639;28;19984;-54
2023/07/24 03:16:39;;;;;;;;;;;22.00;61.20;;;;;;5089288;28;19928;-54
2023/07/24 03:19:05;;;;;;;;;;;22.00;61.20;;;;;;5090094;28;19930;-54
2023/07/24 03:21:32;;;;;;;;;;;22.00;61.20;;;;;;5110025;28;19932;-52
2023/07/24 03:23:59;;;;;;;;;;;22.00;61.20;;;;;;5109615;28;19927;-54
2023/07/24 03:26:27;;;;;;;;;;;22.00;61.20;;;;;;5107610;28;19924;-54
2023/07/24 03:28:54;;;;;;;;;;;22.00;61.20;;;;;;5090927;28;19924;-52
2023/07/24 03:31:21;;;;;;;;;;;22.00;61.20;;;;;;5090580;28;19928;-51
2023/07/24 03:33:47;;;;;;;;;;;22.00;61.20;;;;;;5103949;28;19969;-52
2023/07/24 03:36:14;;;;;;;;;;;22.00;61.20;;;;;;5105777;28;19938;-53
2023/07/24 03:38:41;;;;;;;;;;;22.00;61.20;;;;;;5102665;28;19949;-52
2023/07/24 03:41:08;;;;;;;;;;;22.00;61.30;;;;;;5091768;28;19928;-53
2023/07/24 03:43:36;;;;;;;;;;;22.00;61.30;;;;;;5095006;28;19924;-54
2023/07/24 03:46:02;;;;;;;;;;;22.00;61.30;;;;;;5107301;28;19931;-51
2023/07/24 03:48:29;;;;;;;;;;;22.00;61.30;;;;;;5095543;28;19985;-53
2023/07/24 03:50:58;;;;;;;;;;;22.00;61.30;;;;;;5112236;28;19931;-50
2023/07/24 03:53:25;;;;;;;;;;;22.00;61.30;;;;;;5109561;28;19945;-49
2023/07/24 03:55:52;;;;;;;;;;;22.00;61.30;;;;;;5101540;28;19924;-52
2023/07/24 03:58:19;;;;;;;;;;;22.00;61.30;;;;;;5088180;28;19931;-53
2023/07/24 04:00:47;;;;;;;;;;;22.00;61.30;;;;;;5106800;28;19928;-52
2023/07/24 04:03:14;;;;;;;;;;;22.00;61.30;;;;;;5089565;28;19947;-54
2023/07/24 04:05:41;;;;;;;;;;;22.00;61.30;;;;;;5103225;28;19981;-55
2023/07/24 04:08:08;;;;;;;;;;;22.00;61.30;;;;;;5108266;28;19974;-51
2023/07/24 04:10:34;;;;;;;;;;;22.00;61.30;;;;;;5106887;28;19928;-53
2023/07/24 04:13:01;;;;;;;;;;;22.00;61.20;;;;;;5101206;28;19931;-51
2023/07/24 04:15:28;;;;;;;;;;;22.00;61.30;;;;;;5091957;28;19935;-50
2023/07/24 04:17:56;;;;;;;;;;;22.00;61.20;;;;;;5106523;28;19924;-53
2023/07/24 04:20:23;;;;;;;;;;;22.00;61.30;;;;;;5092044;28;19923;-53
2023/07/24 04:22:50;;;;;;;;;;;22.00;61.20;;;;;;5092793;28;19927;-51
2023/07/24 04:25:17;;;;;;;;;;;22.00;61.20;;;;;;5091645;28;19928;-51
2023/07/24 04:27:43;;;;;;;;;;;22.00;61.10;;;;;;5090243;28;19974;-49
2023/07/24 04:30:11;;;;;;;;;;;22.00;61.10;;;;;;5090243;28;19924;-52
2023/07/24 04:32:37;;;;;;;;;;;22.00;61.10;;;;;;5089464;28;20224;-50
2023/07/24 04:35:07;;;;;;;;;;;22.00;61.10;;;;;;5089560;28;19994;-49
2023/07/24 04:37:33;;;;;;;;;;;22.00;61.10;;;;;;5091941;28;19924;-52
2023/07/24 04:40:00;;;;;;;;;;;22.00;61.10;;;;;;5093366;28;19930;-52
2023/07/24 04:42:27;;;;;;;;;;;22.00;61.10;;;;;;5109173;28;19938;-53
2023/07/24 04:44:54;;;;;;;;;;;22.00;61.10;;;;;;5099029;28;19924;-49
2023/07/24 04:47:20;;;;;;;;;;;22.00;61.10;;;;;;5108834;27;19928;-50
2023/07/24 04:49:47;;;;;;;;;;;22.00;61.10;;;;;;5088417;28;19938;-52
2023/07/24 04:52:15;;;;;;;;;;;22.00;61.10;;;;;;5093904;28;19924;-54
2023/07/24 04:54:42;;;;;;;;;;;22.00;61.10;;;;;;5092223;28;20361;-51
2023/07/24 04:57:09;;;;;;;;;;;22.00;61.10;;;;;;5070349;28;19928;-49
2023/07/24 04:59:36;;;;;;;;;;;22.00;61.10;;;;;;5094809;28;19928;-53
2023/07/24 05:02:02;;;;;;;;;;;22.00;61.10;;;;;;5107173;28;19924;-49
2023/07/24 05:04:29;;;;;;;;;;;22.00;61.10;;;;;;5094487;28;19923;-54
2023/07/24 05:06:56;;;;;;;;;;;22.00;61.10;;;;;;5093963;28;19923;-51
2023/07/24 05:09:24;;;;;;;;;;;22.00;61.10;;;;;;5102697;28;19973;-51
2023/07/24 05:11:51;;;;;;;;;;;22.00;61.10;;;;;;5092644;28;19955;-52
2023/07/24 05:14:18;;;;;;;;;;;22.00;61.10;;;;;;5107195;28;19931;-50
2023/07/24 05:16:44;;;;;;;;;;;22.00;61.10;;;;;;5089778;28;19924;-52
2023/07/24 05:19:11;;;;;;;;;;;22.00;61.10;;;;;;5104853;28;19993;-52
2023/07/24 05:21:38;;;;;;;;;;;22.00;61.80;;;;;;5090697;28;19924;-53
2023/07/24 05:24:05;;;;;;;;;;;22.00;61.00;;;;;;5103961;28;19924;-53
2023/07/24 05:26:33;;;;;;;;;;;22.00;61.00;;;;;;5107371;28;20149;-51
2023/07/24 05:29:00;;;;;;;;;;;22.00;60.90;;;;;;5092895;28;19924;-49
2023/07/24 05:31:27;;;;;;;;;;;22.00;60.90;;;;;;5087768;28;19931;-48
2023/07/24 05:33:54;;;;;;;;;;;22.00;60.90;;;;;;5085308;28;19924;-52
2023/07/24 05:36:20;;;;;;;;;;;22.00;60.90;;;;;;5087020;28;19935;-52
2023/07/24 05:38:47;;;;;;;;;;;22.00;60.80;;;;;;5091204;28;19924;-53
2023/07/24 05:41:14;;;;;;;;;;;22.00;60.80;;;;;;5099601;28;19991;-53
2023/07/24 05:43:42;;;;;;;;;;;22.00;60.80;;;;;;5087563;28;19965;-47
2023/07/24 05:46:09;;;;;;;;;;;22.00;60.80;;;;;;5103766;28;19931;-49
2023/07/24 05:48:36;;;;;;;;;;;22.00;60.80;;;;;;5103716;28;19985;-53
2023/07/24 05:51:02;;;;;;;;;;;22.00;60.80;;;;;;5105369;28;19924;-49
2023/07/24 05:53:29;;;;;;;;;;;22.00;60.80;;;;;;5090346;28;19924;-48
2023/07/24 05:55:59;;;;;;;;;;;22.00;60.80;;;;;;5087614;28;19923;-46
2023/07/24 05:58:26;;;;;;;;;;;22.00;60.80;;;;;;5083116;28;19995;-46
2023/07/24 06:00:55;;;;;;;;;;;22.00;60.80;;;;;;5086522;28;19928;-49
2023/07/24 06:03:21;;;;;;;;;;;22.00;60.90;;;;;;5086727;28;19931;-46
2023/07/24 06:05:51;;;;;;;;;;;22.00;60.80;;;;;;5100309;28;19924;-46
2023/07/24 06:08:18;;;;;;;;;;;22.00;60.80;;;;;;5096738;28;20220;-47
2023/07/24 06:10:44;;;;;;;;;;;22.00;60.80;;;;;;5105004;28;19930;-46
2023/07/24 06:13:11;;;;;;;;;;;22.00;60.80;;;;;;5100234;28;19981;-49
2023/07/24 06:15:38;;;;;;;;;;;22.00;60.70;;;;;;5089247;28;19923;-46
2023/07/24 06:18:06;;;;;;;;;;;22.00;60.70;;;;;;5106399;28;19924;-47
2023/07/24 06:20:33;;;;;;;;;;;22.00;60.70;;;;;;5104356;28;19924;-47
2023/07/24 06:22:59;;;;;;;;;;;22.00;60.60;;;;;;5103293;28;19939;-47
2023/07/24 06:25:26;;;;;;;;;;;22.00;60.60;;;;;;5083707;28;19924;-55
2023/07/24 06:27:53;;;;;;;;;;;22.00;60.80;;;;;;5085920;28;19924;-54
2023/07/24 06:30:19;;;;;;;;;;;22.00;61.30;;;;;;5088410;28;19953;-53
2023/07/24 06:32:46;;;;;;;;;;;22.00;61.40;;;;;;5104524;28;19928;-56
2023/07/24 06:35:15;;;;;;;;;;;22.00;61.70;;;;;;5090700;28;19940;-55
2023/07/24 06:37:41;;;;;;;;;;;22.00;61.90;;;;;;5103758;28;19955;-57
2023/07/24 06:40:08;;;;;;;;;;;22.00;62.00;;;;;;5084002;28;19928;-56
2023/07/24 06:42:35;;;;;;;;;;;22.00;62.00;;;;;;5099620;28;19935;-56
2023/07/24 06:45:02;;;;;;;;;;;22.00;62.20;;;;;;5086895;28;19924;-55
2023/07/24 06:47:29;;;;;;;;;;;22.00;62.30;;;;;;5101506;28;19928;-56
2023/07/24 06:49:55;;;;;;;;;;;22.00;62.50;;;;;;5087013;28;19968;-56
2023/07/24 06:52:24;;;;;;;;;;;22.00;62.60;;;;;;5105308;28;19924;-57
2023/07/24 06:54:50;;;;;;;;;;;22.00;62.50;;;;;;5087981;28;19934;-52
2023/07/24 06:57:17;;;;;;;;;;;22.00;62.50;;;;;;5074016;28;19923;-55
2023/07/24 06:59:44;;;;;;;;;;;22.00;62.40;;;;;;5086816;28;19923;-56
2023/07/24 07:02:11;;;;;;;;;;;22.00;62.50;;;;;;5088843;28;19928;-57
2023/07/24 07:04:38;;;;;;;;;;;22.00;62.40;;;;;;5104523;28;19920;-56
2023/07/24 07:07:05;;;;;;;;;;;22.00;62.50;;;;;;5087775;28;19924;-56
2023/07/24 07:09:33;;;;;;;;;;;22.00;62.50;;;;;;5095759;28;19927;-57
2023/07/24 07:12:00;;;;;;;;;;;22.00;62.50;;;;;;5087354;28;19939;-56
2023/07/24 07:14:26;;;;;;;;;;;22.00;62.60;;;;;;5089823;28;19974;-56
2023/07/24 07:16:53;;;;;;;;;;;22.00;62.60;;;;;;5094532;28;19974;-54
2023/07/24 07:19:20;;;;;;;;;;;22.00;62.60;;;;;;5104823;28;19931;-54
2023/07/24 07:21:47;;;;;;;;;;;22.00;62.70;;;;;;5105591;28;19928;-56
2023/07/24 07:24:14;;;;;;;;;;;22.00;62.60;;;;;;5105233;28;19943;-57
2023/07/24 07:26:42;;;;;;;;;;;22.00;62.60;;;;;;5106568;28;19978;-56
2023/07/24 07:29:08;;;;;;;;;;;22.00;62.50;;;;;;5095677;28;19923;-56
2023/07/24 07:31:35;;;;;;;;;;;22.00;62.40;;;;;;5104186;28;19977;-57
2023/07/24 07:34:02;;;;;;;;;;;22.00;62.50;;;;;;5095218;28;19928;-57
2023/07/24 07:36:29;;;;;;;;;;;22.00;62.50;;;;;;5093060;28;19931;-54
2023/07/24 07:38:55;;;;;;;;;;;22.00;62.50;;;;;;5092950;28;19924;-56
2023/07/24 07:41:22;;;;;;;;;;;22.00;62.50;;;;;;5095483;28;19924;-57
2023/07/24 07:43:50;;;;;;;;;;;22.00;62.50;;;;;;5104210;28;19924;-55
2023/07/24 07:46:17;;;;;;;;;;;22.00;62.50;;;;;;5093623;28;19924;-57
2023/07/24 07:48:46;;;;;;;;;;;22.00;62.30;;;;;;5097556;28;19931;-56
2023/07/24 07:51:12;;;;;;;;;;;22.00;62.30;;;;;;5090221;28;19942;-56
2023/07/24 07:53:40;;;;;;;;;;;22.00;62.30;;;;;;5092259;28;19923;-56
2023/07/24 07:56:06;;;;;;;;;;;22.00;62.20;;;;;;5094994;28;19946;-57
2023/07/24 07:58:33;;;;;;;;;;;22.00;62.10;;;;;;5089368;28;19928;-56
2023/07/24 08:01:05;;;;;;;;;;;22.00;61.90;;;;;;5094767;28;19952;-56
2023/07/24 08:03:32;;;;;;;;;;;22.00;62.00;;;;;;5087752;28;19981;-57
2023/07/24 08:05:59;;;;;;;;;;;22.00;62.00;;;;;;5093133;28;19928;-57
2023/07/24 08:08:26;;;;;;;;;;;22.00;61.90;;;;;;5111662;28;19976;-55
2023/07/24 08:10:53;;;;;;;;;;;22.00;61.90;;;;;;5101712;28;19924;-56
2023/07/24 08:13:19;;;;;;;;;;;22.00;61.90;;;;;;5112364;28;19976;-55
2023/07/24 08:15:46;;;;;;;;;;;22.00;61.90;;;;;;5107984;28;19924;-56
2023/07/24 08:18:14;;;;;;;;;;;22.00;61.90;;;;;;5101243;28;19969;-56
2023/07/24 08:20:41;;;;;;;;;;;22.00;61.80;;;;;;5108145;28;19927;-55
2023/07/24 08:23:08;;;;;;;;;;;22.00;61.90;;;;;;5111750;28;20376;-56
2023/07/24 08:25:35;;;;;;;;;;;22.00;61.80;;;;;;5106995;28;19924;-56
2023/07/24 08:28:01;;;;;;;;;;;22.00;61.80;;;;;;5087941;28;19960;-55
2023/07/24 08:30:28;;;;;;;;;;;22.00;61.70;;;;;;5111194;28;20389;-57
2023/07/24 08:32:55;;;;;;;;;;;22.00;61.70;;;;;;5091297;28;19924;-55
2023/07/24 08:35:23;;;;;;;;;;;22.00;61.70;;;;;;5091621;28;20023;-55
2023/07/24 08:37:50;;;;;;;;;;;22.00;61.80;;;;;;5096313;28;19928;-57
2023/07/24 08:40:17;;;;;;;;;;;22.00;61.70;;;;;;5107936;28;19947;-57
2023/07/24 08:42:43;;;;;;;;;;;22.00;61.70;;;;;;5087853;28;19924;-57
2023/07/24 08:45:12;;;;;;;;;;;22.00;61.70;;;;;;5090764;28;19924;-56
2023/07/24 08:47:40;;;;;;;;;;;22.00;61.70;;;;;;5088072;28;19927;-57
2023/07/24 08:50:09;;;;;;;;;;;22.00;61.90;;;;;;5108082;28;20166;-54
2023/07/24 08:52:37;;;;;;;;;;;22.00;61.90;;;;;;5087036;28;19932;-57
2023/07/24 08:55:05;;;;;;;;;;;22.00;61.80;;;;;;5106154;28;19977;-56
2023/07/24 08:57:32;;;;;;;;;;;22.00;62.60;;;;;;5101294;28;19948;-56
2023/07/24 09:00:00;;;;;;;;;;;22.00;61.80;;;;;;5106086;28;19969;-56
2023/07/24 09:02:27;;;;;;;;;;;22.00;61.90;;;;;;5088564;28;19930;-56
2023/07/24 09:04:54;;;;;;;;;;;22.00;62.00;;;;;;5096961;28;19924;-54
2023/07/24 09:07:21;;;;;;;;;;;22.10;62.20;;;;;;5092713;28;19923;-53
2023/07/24 09:09:49;;;;;;;;;;;22.10;62.20;;;;;;5093545;28;19931;-57
2023/07/24 09:12:16;;;;;;;;;;;22.10;62.20;;;;;;5090690;28;19924;-56
2023/07/24 09:14:45;;;;;;;;;;;22.00;61.90;;;;;;5089715;28;19931;-58
2023/07/24 09:17:12;;;;;;;;;;;22.10;62.00;;;;;;5089808;28;19928;-54
2023/07/24 09:19:39;;;;;;;;;;;22.10;61.90;;;;;;5094033;28;19924;-57
2023/07/24 09:22:10;;;;;;;;;;;22.10;62.00;;;;;;5094766;28;19931;-56
2023/07/24 09:24:36;;;;;;;;;;;22.10;62.00;;;;;;5086169;28;19935;-57
2023/07/24 09:27:05;;;;;;;;;;;22.10;62.00;;;;;;5112106;28;19927;-57
2023/07/24 09:29:32;;;;;;;;;;;22.10;62.00;;;;;;5106896;28;19928;-57
2023/07/24 09:31:59;;;;;;;;;;;22.10;61.90;;;;;;5092687;28;20035;-57
2023/07/24 09:34:26;;;;;;;;;;;22.10;61.90;;;;;;5106315;28;19977;-56
2023/07/24 09:36:53;;;;;;;;;;;22.10;62.60;;;;;;5091195;28;19930;-56
2023/07/24 09:39:23;;;;;;;;;;;22.10;61.80;;;;;;5088949;28;19924;-55
2023/07/24 09:41:50;;;;;;;;;;;22.10;61.70;;;;;;5089498;28;19977;-54
2023/07/24 09:44:18;;;;;;;;;;;22.10;62.00;;;;;;5092363;28;19935;-57
2023/07/24 09:46:45;;;;;;;;;;;22.10;61.80;;;;;;5080768;28;19924;-57
2023/07/24 09:49:12;;;;;;;;;;;22.10;61.80;;;;;;5107695;28;19928;-57
2023/07/24 09:51:38;;;;;;;;;;;22.10;61.70;;;;;;5102271;28;19928;-59
2023/07/24 09:54:07;;;;;;;;;;;22.20;61.80;;;;;;5105286;28;19923;-58
2023/07/24 09:56:34;;;;;;;;;;;22.20;61.60;;;;;;5109070;28;20003;-56
2023/07/24 09:59:01;;;;;;;;;;;22.20;61.60;;;;;;5088738;28;19983;-55
2023/07/24 10:01:29;;;;;;;;;;;22.20;61.60;;;;;;5102746;28;19946;-57
2023/07/24 10:03:56;;;;;;;;;;;22.20;61.60;;;;;;5080796;28;19982;-56
2023/07/24 10:06:23;;;;;;;;;;;22.20;61.50;;;;;;5072692;28;19930;-57
2023/07/24 10:08:49;;;;;;;;;;;22.20;61.40;;;;;;5106697;28;19924;-58
2023/07/24 10:11:16;;;;;;;;;;;22.20;61.40;;;;;;5090183;28;19931;-55
2023/07/24 10:13:43;;;;;;;;;;;22.20;61.30;;;;;;5090019;28;19924;-56
2023/07/24 10:16:10;;;;;;;;;;;22.20;61.30;;;;;;5089896;28;19924;-58
2023/07/24 10:18:42;;;;;;;;;;;22.20;61.30;;;;;;5093419;28;19923;-57
2023/07/24 10:21:09;;;;;;;;;;;22.20;61.20;;;;;;5107949;28;19927;-57
2023/07/24 10:23:36;;;;;;;;;;;22.20;61.20;;;;;;5092280;28;19942;-58
2023/07/24 10:26:03;;;;;;;;;;;22.20;61.20;;;;;;5100754;28;19939;-57
2023/07/24 10:28:34;;;;;;;;;;;22.20;61.00;;;;;;5103187;28;19938;-58
2023/07/24 10:31:01;;;;;;;;;;;22.20;61.00;;;;;;5095236;28;19928;-57
2023/07/24 10:33:30;;;;;;;;;;;22.20;61.00;;;;;;5106688;28;19972;-57
2023/07/24 10:36:04;;;;;;;;;;;22.20;60.90;;;;;;5096597;28;19931;-54
2023/07/24 10:38:33;;;;;;;;;;;22.20;60.80;;;;;;5095944;28;19924;-56
2023/07/24 10:41:02;;;;;;;;;;;22.20;60.70;;;;;;5090269;28;19977;-55
2023/07/24 10:43:29;;;;;;;;;;;22.30;60.70;;;;;;5101196;28;19924;-55
2023/07/24 10:45:55;;;;;;;;;;;22.20;60.60;;;;;;5109311;28;19928;-58
2023/07/24 10:48:22;;;;;;;;;;;22.20;60.60;;;;;;5107848;28;19931;-57
2023/07/24 10:50:50;;;;;;;;;;;22.30;60.60;;;;;;5096516;28;19924;-58
2023/07/24 10:53:18;;;;;;;;;;;22.30;60.60;;;;;;5093087;28;20034;-55
2023/07/24 10:55:46;;;;;;;;;;;22.30;60.60;;;;;;5110008;28;19931;-56
2023/07/24 10:58:13;;;;;;;;;;;22.30;60.60;;;;;;5094185;28;19958;-57
2023/07/24 11:00:40;;;;;;;;;;;22.30;60.50;;;;;;5107980;28;19924;-57
2023/07/24 11:03:08;;;;;;;;;;;22.30;60.60;;;;;;5087713;28;19960;-57
2023/07/24 11:05:35;;;;;;;;;;;22.30;60.40;;;;;;5096962;28;19924;-56
2023/07/24 11:08:02;;;;;;;;;;;22.30;60.40;;;;;;5107535;28;19931;-57
2023/07/24 11:10:31;;;;;;;;;;;22.30;60.30;;;;;;5108707;28;19923;-58
2023/07/24 11:12:57;;;;;;;;;;;22.30;60.30;;;;;;5096815;28;20035;-56
2023/07/24 11:15:25;;;;;;;;;;;22.30;60.30;;;;;;5088353;28;19935;-58
2023/07/24 11:17:52;;;;;;;;;;;22.30;60.30;;;;;;5092101;28;19924;-57
2023/07/24 11:20:18;;;;;;;;;;;22.30;60.20;;;;;;5095124;28;19938;-57
2023/07/24 11:22:45;;;;;;;;;;;22.30;60.20;;;;;;5096889;28;20388;-57
2023/07/24 11:25:12;;;;;;;;;;;22.30;60.10;;;;;;5090110;28;19935;-57
2023/07/24 11:27:41;;;;;;;;;;;22.40;60.20;;;;;;5091385;28;19924;-57
2023/07/24 11:30:08;;;;;;;;;;;22.30;60.10;;;;;;5110817;28;19954;-58
2023/07/24 11:32:35;;;;;;;;;;;22.30;60.10;;;;;;5089029;28;19924;-58
2023/07/24 11:35:02;;;;;;;;;;;22.30;60.10;;;;;;5092421;28;19947;-56
2023/07/24 11:37:31;;;;;;;;;;;22.30;60.10;;;;;;5109507;28;19934;-59
2023/07/24 11:40:04;;;;;;;;;;;22.30;60.00;;;;;;5103961;28;19932;-58
2023/07/24 11:42:31;;;;;;;;;;;22.30;60.10;;;;;;5085597;28;19924;-57
2023/07/24 11:45:01;;;;;;;;;;;22.40;60.10;;;;;;5109866;28;19935;-55
2023/07/24 11:47:28;;;;;;;;;;;22.30;60.00;;;;;;5106008;28;19928;-57
2023/07/24 11:49:59;;;;;;;;;;;22.40;60.10;;;;;;5090017;28;19950;-57
2023/07/24 11:52:25;;;;;;;;;;;22.40;60.00;;;;;;5090815;28;19931;-57
2023/07/24 11:55:01;;;;;;;;;;;22.40;60.00;;;;;;5095860;28;19927;-57
2023/07/24 11:57:28;;;;;;;;;;;22.40;60.00;;;;;;5085062;28;19927;-57
2023/07/24 11:59:57;;;;;;;;;;;22.40;60.00;;;;;;5106134;28;19924;-56
2023/07/24 12:02:25;;;;;;;;;;;22.40;60.00;;;;;;5110519;27;20161;-55
2023/07/24 12:04:53;;;;;;;;;;;22.40;60.00;;;;;;5093252;28;19931;-57
2023/07/24 12:07:20;;;;;;;;;;;22.50;60.20;;;;;;5111313;28;19932;-57
2023/07/24 12:09:51;;;;;;;;;;;22.50;60.20;;;;;;5101788;28;19931;-57
2023/07/24 12:12:17;;;;;;;;;;;22.50;60.20;;;;;;5093708;28;19939;-57
2023/07/24 12:14:44;;;;;;;;;;;22.50;60.10;;;;;;5107037;28;19954;-59
2023/07/24 12:17:14;;;;;;;;;;;22.50;60.00;;;;;;5103859;28;19984;-57
2023/07/24 12:19:42;;;;;;;;;;;22.50;60.30;;;;;;5105692;28;19932;-57
2023/07/24 12:22:09;;;;;;;;;;;22.60;60.10;;;;;;5109958;28;19924;-57
2023/07/24 12:24:36;;;;;;;;;;;22.60;60.00;;;;;;5105610;28;19931;-58
2023/07/24 12:27:03;;;;;;;;;;;22.60;60.00;;;;;;5111707;28;19958;-57
2023/07/24 12:29:29;;;;;;;;;;;22.60;60.00;;;;;;5105397;28;19928;-57
2023/07/24 12:31:56;;;;;;;;;;;22.60;59.90;;;;;;5089599;28;19928;-57
2023/07/24 12:34:23;;;;;;;;;;;22.60;59.90;;;;;;5094194;28;19924;-58
2023/07/24 12:36:52;;;;;;;;;;;22.60;59.90;;;;;;5111423;27;19931;-58
2023/07/24 12:39:18;;;;;;;;;;;22.60;59.80;;;;;;5103159;28;19976;-57
2023/07/24 12:41:45;;;;;;;;;;;22.60;59.80;;;;;;5103431;28;19923;-58
2023/07/24 12:44:12;;;;;;;;;;;22.60;59.70;;;;;;5106613;28;19977;-56
2023/07/24 12:46:39;;;;;;;;;;;22.60;59.70;;;;;;5092768;28;19924;-58
2023/07/24 12:49:05;;;;;;;;;;;22.60;59.70;;;;;;5106552;28;19931;-57
2023/07/24 12:51:32;;;;;;;;;;;22.60;59.70;;;;;;5093113;28;19927;-58
2023/07/24 12:54:00;;;;;;;;;;;22.60;59.70;;;;;;5098219;28;20346;-57
2023/07/24 12:56:27;;;;;;;;;;;22.60;59.60;;;;;;5105400;28;19924;-57
2023/07/24 12:58:54;;;;;;;;;;;22.60;59.60;;;;;;5108999;28;19924;-58
2023/07/24 13:01:21;;;;;;;;;;;22.60;59.60;;;;;;5113088;28;19924;-57
2023/07/24 13:03:48;;;;;;;;;;;22.60;59.60;;;;;;5109941;27;19924;-57
2023/07/24 13:06:14;;;;;;;;;;;22.60;59.60;;;;;;5087036;28;19949;-58
2023/07/24 13:08:44;;;;;;;;;;;22.60;59.60;;;;;;5086201;28;19981;-58
2023/07/24 13:11:12;;;;;;;;;;;22.60;59.60;;;;;;5104687;28;19928;-57
2023/07/24 13:13:39;;;;;;;;;;;22.60;59.60;;;;;;5108870;28;19931;-58
2023/07/24 13:16:05;;;;;;;;;;;22.60;59.70;;;;;;5105705;28;19928;-57
2023/07/24 13:18:32;;;;;;;;;;;22.60;59.60;;;;;;5082340;28;19931;-55
2023/07/24 13:20:59;;;;;;;;;;;22.60;59.60;;;;;;5090316;28;20369;-58
2023/07/24 13:23:26;;;;;;;;;;;22.60;59.60;;;;;;5105458;28;19977;-59
2023/07/24 13:25:53;;;;;;;;;;;22.60;59.50;;;;;;5085327;28;19923;-58
2023/07/24 13:28:21;;;;;;;;;;;22.60;59.60;;;;;;5090362;28;19924;-58
2023/07/24 13:30:48;;;;;;;;;;;22.60;59.60;;;;;;5089984;28;19932;-58
2023/07/24 13:33:15;;;;;;;;;;;22.70;59.60;;;;;;5092096;28;19927;-59
2023/07/24 13:35:42;;;;;;;;;;;22.60;59.50;;;;;;5090203;28;19931;-58
2023/07/24 13:38:09;;;;;;;;;;;22.70;59.60;;;;;;5108026;28;19928;-54
2023/07/24 13:40:35;;;;;;;;;;;22.70;59.50;;;;;;5087297;28;19928;-59
2023/07/24 13:43:03;;;;;;;;;;;22.70;59.50;;;;;;5100225;28;19932;-59
2023/07/24 13:45:31;;;;;;;;;;;22.70;59.50;;;;;;5097964;28;19958;-59
2023/07/24 13:47:58;;;;;;;;;;;22.70;59.50;;;;;;5108781;28;19931;-59
2023/07/24 13:50:25;;;;;;;;;;;22.70;59.50;;;;;;5102827;28;19935;-59
2023/07/24 13:52:51;;;;;;;;;;;22.70;59.40;;;;;;5104126;28;19928;-60
2023/07/24 13:55:18;;;;;;;;;;;22.70;59.40;;;;;;5091380;28;19932;-58
2023/07/24 13:57:45;;;;;;;;;;;22.70;59.40;;;;;;5088257;28;19928;-58
2023/07/24 14:00:12;;;;;;;;;;;22.80;59.40;;;;;;5103960;28;19924;-57
2023/07/24 14:02:40;;;;;;;;;;;22.70;59.30;;;;;;5102884;28;19928;-57
2023/07/24 14:05:08;;;;;;;;;;;22.70;59.30;;;;;;5085024;28;19923;-59
2023/07/24 14:07:35;;;;;;;;;;;22.70;59.20;;;;;;5089644;28;19934;-59
2023/07/24 14:10:02;;;;;;;;;;;22.70;59.20;;;;;;5083620;28;19924;-57
2023/07/24 14:12:28;;;;;;;;;;;22.80;59.20;;;;;;5104076;28;19924;-58
2023/07/24 14:14:55;;;;;;;;;;;22.80;59.20;;;;;;5102991;28;19927;-58